sensor_id;sensor_type;location;lat;lon;timestamp;P1;durP1;ratioP1;P2;durP2;ratioP2
5995;SDS011;3026;53.612;7.278;2022-07-05T00:01:05;3.43;;;1.20;;
5995;SDS011;3026;53.612;7.278;2022-07-05T00:03:32;4.20;;;1.30;;
5995;SDS011;3026;53.612;7.278;2022-07-05T00:05:59;1.77;;;1.20;;
5995;SDS011;3026;53.612;7.278;2022-07-05T00:08:26;3.10;;;1.40;;
5995;SDS011;3026;53.612;7.278;2022-07-05T00:10:53;2.07;;;1.40;;
5995;SDS011;3026;53.612;7.278;2022-07-05T00:13:20;4.33;;;1.00;;
5995;SDS011;3026;53.612;7.278;2022-07-05T00:15:48;1.77;;;0.90;;
5995;SDS011;3026;53.612;7.278;2022-07-05T00:18:15;4.57;;;1.57;;
5995;SDS011;3026;53.612;7.278;2022-07-05T00:20:43;1.90;;;1.20;;
5995;SDS011;3026;53.612;7.278;2022-07-05T00:23:10;1.37;;;1.00;;
5995;SDS011;3026;53.612;7.278;2022-07-05T00:25:37;3.33;;;1.63;;
5995;SDS011;3026;53.612;7.278;2022-07-05T00:28:04;1.80;;;1.20;;
5995;SDS011;3026;53.612;7.278;2022-07-05T00:30:31;2.37;;;0.93;;
5995;SDS011;3026;53.612;7.278;2022-07-05T00:32:59;1.67;;;1.00;;
5995;SDS011;3026;53.612;7.278;2022-07-05T00:35:26;3.30;;;1.60;;
5995;SDS011;3026;53.612;7.278;2022-07-05T00:37:53;3.33;;;1.57;;
5995;SDS011;3026;53.612;7.278;2022-07-05T00:40:20;1.83;;;1.10;;
5995;SDS011;3026;53.612;7.278;2022-07-05T00:42:46;3.03;;;1.17;;
5995;SDS011;3026;53.612;7.278;2022-07-05T00:45:13;1.87;;;1.10;;
5995;SDS011;3026;53.612;7.278;2022-07-05T00:47:40;1.83;;;1.10;;
5995;SDS011;3026;53.612;7.278;2022-07-05T00:50:09;3.23;;;1.40;;
5995;SDS011;3026;53.612;7.278;2022-07-05T00:52:36;2.70;;;1.63;;
5995;SDS011;3026;53.612;7.278;2022-07-05T00:55:03;2.80;;;1.20;;
5995;SDS011;3026;53.612;7.278;2022-07-05T00:57:30;3.90;;;1.10;;
5995;SDS011;3026;53.612;7.278;2022-07-05T00:59:59;2.60;;;1.17;;
5995;SDS011;3026;53.612;7.278;2022-07-05T01:02:26;2.93;;;1.30;;
5995;SDS011;3026;53.612;7.278;2022-07-05T01:04:53;3.03;;;1.30;;
5995;SDS011;3026;53.612;7.278;2022-07-05T01:07:22;3.03;;;1.17;;
5995;SDS011;3026;53.612;7.278;2022-07-05T01:09:50;2.73;;;1.30;;
5995;SDS011;3026;53.612;7.278;2022-07-05T01:12:18;2.47;;;1.40;;
5995;SDS011;3026;53.612;7.278;2022-07-05T01:14:45;3.17;;;1.40;;
5995;SDS011;3026;53.612;7.278;2022-07-05T01:17:11;2.47;;;1.40;;
5995;SDS011;3026;53.612;7.278;2022-07-05T01:19:39;3.13;;;1.40;;
5995;SDS011;3026;53.612;7.278;2022-07-05T01:22:09;3.00;;;1.50;;
5995;SDS011;3026;53.612;7.278;2022-07-05T01:24:43;3.47;;;1.33;;
5995;SDS011;3026;53.612;7.278;2022-07-05T01:27:11;5.17;;;2.00;;
5995;SDS011;3026;53.612;7.278;2022-07-05T01:29:38;3.47;;;1.40;;
5995;SDS011;3026;53.612;7.278;2022-07-05T01:32:05;1.87;;;1.20;;
5995;SDS011;3026;53.612;7.278;2022-07-05T01:34:32;3.73;;;1.50;;
5995;SDS011;3026;53.612;7.278;2022-07-05T01:37:03;2.47;;;1.33;;
5995;SDS011;3026;53.612;7.278;2022-07-05T01:39:30;3.27;;;1.37;;
5995;SDS011;3026;53.612;7.278;2022-07-05T01:41:58;3.80;;;1.60;;
5995;SDS011;3026;53.612;7.278;2022-07-05T01:44:25;1.93;;;1.47;;
5995;SDS011;3026;53.612;7.278;2022-07-05T01:46:54;3.40;;;1.63;;
5995;SDS011;3026;53.612;7.278;2022-07-05T01:49:25;5.83;;;1.63;;
5995;SDS011;3026;53.612;7.278;2022-07-05T01:51:54;1.67;;;1.20;;
5995;SDS011;3026;53.612;7.278;2022-07-05T01:54:23;1.73;;;1.20;;
5995;SDS011;3026;53.612;7.278;2022-07-05T01:56:50;4.03;;;1.50;;
5995;SDS011;3026;53.612;7.278;2022-07-05T01:59:19;3.37;;;1.37;;
5995;SDS011;3026;53.612;7.278;2022-07-05T02:01:46;5.27;;;1.20;;
5995;SDS011;3026;53.612;7.278;2022-07-05T02:04:12;4.23;;;1.50;;
5995;SDS011;3026;53.612;7.278;2022-07-05T02:06:39;3.30;;;1.30;;
5995;SDS011;3026;53.612;7.278;2022-07-05T02:09:06;2.13;;;1.23;;
5995;SDS011;3026;53.612;7.278;2022-07-05T02:11:33;1.90;;;1.40;;
5995;SDS011;3026;53.612;7.278;2022-07-05T02:14:00;4.27;;;1.80;;
5995;SDS011;3026;53.612;7.278;2022-07-05T02:16:28;2.50;;;1.50;;
5995;SDS011;3026;53.612;7.278;2022-07-05T02:18:55;5.47;;;1.53;;
5995;SDS011;3026;53.612;7.278;2022-07-05T02:21:22;4.10;;;1.80;;
5995;SDS011;3026;53.612;7.278;2022-07-05T02:23:49;1.73;;;1.37;;
5995;SDS011;3026;53.612;7.278;2022-07-05T02:26:16;4.37;;;1.80;;
5995;SDS011;3026;53.612;7.278;2022-07-05T02:28:43;2.80;;;1.50;;
5995;SDS011;3026;53.612;7.278;2022-07-05T02:31:11;1.97;;;1.60;;
5995;SDS011;3026;53.612;7.278;2022-07-05T02:33:39;2.33;;;1.43;;
5995;SDS011;3026;53.612;7.278;2022-07-05T02:36:07;2.60;;;1.60;;
5995;SDS011;3026;53.612;7.278;2022-07-05T02:38:35;4.13;;;1.60;;
5995;SDS011;3026;53.612;7.278;2022-07-05T02:41:04;2.00;;;1.60;;
5995;SDS011;3026;53.612;7.278;2022-07-05T02:43:32;3.33;;;1.63;;
5995;SDS011;3026;53.612;7.278;2022-07-05T02:45:59;3.83;;;1.80;;
5995;SDS011;3026;53.612;7.278;2022-07-05T02:48:27;2.43;;;1.70;;
5995;SDS011;3026;53.612;7.278;2022-07-05T02:50:56;6.47;;;1.77;;
5995;SDS011;3026;53.612;7.278;2022-07-05T02:53:23;2.40;;;1.90;;
5995;SDS011;3026;53.612;7.278;2022-07-05T02:55:49;3.53;;;2.00;;
5995;SDS011;3026;53.612;7.278;2022-07-05T02:58:17;2.63;;;1.80;;
5995;SDS011;3026;53.612;7.278;2022-07-05T03:00:44;2.33;;;1.90;;
5995;SDS011;3026;53.612;7.278;2022-07-05T03:03:12;7.00;;;2.10;;
5995;SDS011;3026;53.612;7.278;2022-07-05T03:05:39;4.53;;;1.97;;
5995;SDS011;3026;53.612;7.278;2022-07-05T03:08:07;3.33;;;1.67;;
5995;SDS011;3026;53.612;7.278;2022-07-05T03:10:34;2.43;;;1.50;;
5995;SDS011;3026;53.612;7.278;2022-07-05T03:13:01;1.77;;;1.60;;
5995;SDS011;3026;53.612;7.278;2022-07-05T03:15:28;4.83;;;1.70;;
5995;SDS011;3026;53.612;7.278;2022-07-05T03:17:56;3.03;;;1.90;;
5995;SDS011;3026;53.612;7.278;2022-07-05T03:20:23;2.80;;;1.70;;
5995;SDS011;3026;53.612;7.278;2022-07-05T03:22:50;2.73;;;1.80;;
5995;SDS011;3026;53.612;7.278;2022-07-05T03:25:18;2.40;;;1.80;;
5995;SDS011;3026;53.612;7.278;2022-07-05T03:27:45;4.47;;;2.57;;
5995;SDS011;3026;53.612;7.278;2022-07-05T03:30:12;4.53;;;1.80;;
5995;SDS011;3026;53.612;7.278;2022-07-05T03:32:39;3.47;;;1.90;;
5995;SDS011;3026;53.612;7.278;2022-07-05T03:35:07;2.87;;;1.83;;
5995;SDS011;3026;53.612;7.278;2022-07-05T03:37:34;6.23;;;2.30;;
5995;SDS011;3026;53.612;7.278;2022-07-05T03:40:02;2.83;;;1.73;;
5995;SDS011;3026;53.612;7.278;2022-07-05T03:42:30;3.83;;;1.87;;
5995;SDS011;3026;53.612;7.278;2022-07-05T03:44:57;1.90;;;1.77;;
5995;SDS011;3026;53.612;7.278;2022-07-05T03:47:24;2.47;;;1.97;;
5995;SDS011;3026;53.612;7.278;2022-07-05T03:49:51;5.07;;;2.30;;
5995;SDS011;3026;53.612;7.278;2022-07-05T03:52:18;6.03;;;2.30;;
5995;SDS011;3026;53.612;7.278;2022-07-05T03:54:44;6.10;;;1.93;;
5995;SDS011;3026;53.612;7.278;2022-07-05T03:57:11;3.83;;;2.50;;
5995;SDS011;3026;53.612;7.278;2022-07-05T03:59:39;6.97;;;2.17;;
5995;SDS011;3026;53.612;7.278;2022-07-05T04:02:06;5.20;;;2.33;;
5995;SDS011;3026;53.612;7.278;2022-07-05T04:04:33;2.23;;;1.77;;
5995;SDS011;3026;53.612;7.278;2022-07-05T04:07:00;2.20;;;2.00;;
5995;SDS011;3026;53.612;7.278;2022-07-05T04:09:27;2.83;;;1.93;;
5995;SDS011;3026;53.612;7.278;2022-07-05T04:11:54;3.87;;;2.33;;
5995;SDS011;3026;53.612;7.278;2022-07-05T04:14:21;5.80;;;2.20;;
5995;SDS011;3026;53.612;7.278;2022-07-05T04:16:49;3.37;;;2.20;;
5995;SDS011;3026;53.612;7.278;2022-07-05T04:19:16;2.83;;;1.97;;
5995;SDS011;3026;53.612;7.278;2022-07-05T04:21:43;5.33;;;1.70;;
5995;SDS011;3026;53.612;7.278;2022-07-05T04:24:10;3.23;;;2.47;;
5995;SDS011;3026;53.612;7.278;2022-07-05T04:26:37;3.70;;;2.10;;
5995;SDS011;3026;53.612;7.278;2022-07-05T04:29:04;4.33;;;1.80;;
5995;SDS011;3026;53.612;7.278;2022-07-05T04:31:30;5.20;;;2.20;;
5995;SDS011;3026;53.612;7.278;2022-07-05T04:33:59;4.63;;;1.93;;
5995;SDS011;3026;53.612;7.278;2022-07-05T04:36:26;4.77;;;2.10;;
5995;SDS011;3026;53.612;7.278;2022-07-05T04:38:53;3.40;;;2.33;;
5995;SDS011;3026;53.612;7.278;2022-07-05T04:41:20;2.40;;;1.90;;
5995;SDS011;3026;53.612;7.278;2022-07-05T04:43:46;4.10;;;1.90;;
5995;SDS011;3026;53.612;7.278;2022-07-05T04:46:13;2.77;;;1.70;;
5995;SDS011;3026;53.612;7.278;2022-07-05T04:48:40;4.30;;;1.87;;
5995;SDS011;3026;53.612;7.278;2022-07-05T04:51:08;4.10;;;2.10;;
5995;SDS011;3026;53.612;7.278;2022-07-05T04:53:35;3.53;;;1.80;;
5995;SDS011;3026;53.612;7.278;2022-07-05T04:56:02;2.97;;;1.90;;
5995;SDS011;3026;53.612;7.278;2022-07-05T04:58:30;4.33;;;1.60;;
5995;SDS011;3026;53.612;7.278;2022-07-05T05:00:57;4.57;;;1.90;;
5995;SDS011;3026;53.612;7.278;2022-07-05T05:03:23;3.00;;;1.77;;
5995;SDS011;3026;53.612;7.278;2022-07-05T05:05:51;3.83;;;2.10;;
5995;SDS011;3026;53.612;7.278;2022-07-05T05:08:19;2.37;;;1.57;;
5995;SDS011;3026;53.612;7.278;2022-07-05T05:10:46;3.57;;;2.00;;
5995;SDS011;3026;53.612;7.278;2022-07-05T05:13:12;2.33;;;1.60;;
5995;SDS011;3026;53.612;7.278;2022-07-05T05:15:39;5.00;;;1.80;;
5995;SDS011;3026;53.612;7.278;2022-07-05T05:18:06;1.63;;;1.40;;
5995;SDS011;3026;53.612;7.278;2022-07-05T05:20:32;2.20;;;1.40;;
5995;SDS011;3026;53.612;7.278;2022-07-05T05:22:59;3.43;;;1.43;;
5995;SDS011;3026;53.612;7.278;2022-07-05T05:25:27;1.73;;;1.20;;
5995;SDS011;3026;53.612;7.278;2022-07-05T05:27:56;2.40;;;1.20;;
5995;SDS011;3026;53.612;7.278;2022-07-05T05:30:23;3.87;;;1.50;;
5995;SDS011;3026;53.612;7.278;2022-07-05T05:32:50;2.77;;;1.47;;
5995;SDS011;3026;53.612;7.278;2022-07-05T05:35:17;6.90;;;2.30;;
5995;SDS011;3026;53.612;7.278;2022-07-05T05:37:49;2.13;;;1.37;;
5995;SDS011;3026;53.612;7.278;2022-07-05T05:40:17;3.47;;;1.67;;
5995;SDS011;3026;53.612;7.278;2022-07-05T05:42:45;2.03;;;1.10;;
5995;SDS011;3026;53.612;7.278;2022-07-05T05:45:13;3.33;;;1.27;;
5995;SDS011;3026;53.612;7.278;2022-07-05T05:47:46;1.83;;;1.30;;
5995;SDS011;3026;53.612;7.278;2022-07-05T05:50:19;5.20;;;1.70;;
5995;SDS011;3026;53.612;7.278;2022-07-05T05:52:46;2.50;;;1.27;;
5995;SDS011;3026;53.612;7.278;2022-07-05T05:55:13;2.77;;;1.30;;
5995;SDS011;3026;53.612;7.278;2022-07-05T05:57:40;2.70;;;1.30;;
5995;SDS011;3026;53.612;7.278;2022-07-05T06:00:09;2.87;;;1.60;;
5995;SDS011;3026;53.612;7.278;2022-07-05T06:02:37;4.00;;;1.27;;
5995;SDS011;3026;53.612;7.278;2022-07-05T06:05:04;2.10;;;1.70;;
5995;SDS011;3026;53.612;7.278;2022-07-05T06:07:43;1.93;;;1.10;;
5995;SDS011;3026;53.612;7.278;2022-07-05T06:10:10;3.77;;;1.03;;
5995;SDS011;3026;53.612;7.278;2022-07-05T06:12:41;4.63;;;1.37;;
5995;SDS011;3026;53.612;7.278;2022-07-05T06:15:09;2.77;;;1.10;;
5995;SDS011;3026;53.612;7.278;2022-07-05T06:17:36;4.50;;;1.47;;
5995;SDS011;3026;53.612;7.278;2022-07-05T06:20:04;1.60;;;1.00;;
5995;SDS011;3026;53.612;7.278;2022-07-05T06:22:32;5.47;;;1.10;;
5995;SDS011;3026;53.612;7.278;2022-07-05T06:24:59;2.53;;;1.23;;
5995;SDS011;3026;53.612;7.278;2022-07-05T06:27:26;3.40;;;1.53;;
5995;SDS011;3026;53.612;7.278;2022-07-05T06:29:52;2.60;;;1.00;;
5995;SDS011;3026;53.612;7.278;2022-07-05T06:32:20;5.27;;;1.10;;
5995;SDS011;3026;53.612;7.278;2022-07-05T06:34:47;4.57;;;1.10;;
5995;SDS011;3026;53.612;7.278;2022-07-05T06:37:14;2.67;;;1.10;;
5995;SDS011;3026;53.612;7.278;2022-07-05T06:39:41;2.30;;;1.13;;
5995;SDS011;3026;53.612;7.278;2022-07-05T06:42:07;2.93;;;0.90;;
5995;SDS011;3026;53.612;7.278;2022-07-05T06:44:34;3.47;;;1.10;;
5995;SDS011;3026;53.612;7.278;2022-07-05T06:47:01;4.87;;;1.30;;
5995;SDS011;3026;53.612;7.278;2022-07-05T06:49:29;1.53;;;0.80;;
5995;SDS011;3026;53.612;7.278;2022-07-05T06:51:56;2.23;;;1.20;;
5995;SDS011;3026;53.612;7.278;2022-07-05T06:54:23;3.53;;;1.10;;
5995;SDS011;3026;53.612;7.278;2022-07-05T06:56:50;2.27;;;1.20;;
5995;SDS011;3026;53.612;7.278;2022-07-05T06:59:18;4.90;;;0.90;;
5995;SDS011;3026;53.612;7.278;2022-07-05T07:01:45;3.63;;;1.00;;
5995;SDS011;3026;53.612;7.278;2022-07-05T07:04:11;1.50;;;1.00;;
5995;SDS011;3026;53.612;7.278;2022-07-05T07:06:40;1.37;;;1.00;;
5995;SDS011;3026;53.612;7.278;2022-07-05T07:09:07;5.63;;;1.43;;
5995;SDS011;3026;53.612;7.278;2022-07-05T07:11:46;5.60;;;1.13;;
5995;SDS011;3026;53.612;7.278;2022-07-05T07:14:13;5.20;;;1.10;;
5995;SDS011;3026;53.612;7.278;2022-07-05T07:16:40;1.40;;;1.00;;
5995;SDS011;3026;53.612;7.278;2022-07-05T07:19:07;3.10;;;0.97;;
5995;SDS011;3026;53.612;7.278;2022-07-05T07:21:34;4.63;;;1.20;;
5995;SDS011;3026;53.612;7.278;2022-07-05T07:24:02;6.03;;;1.60;;
5995;SDS011;3026;53.612;7.278;2022-07-05T07:26:29;6.53;;;1.43;;
5995;SDS011;3026;53.612;7.278;2022-07-05T07:29:16;3.83;;;1.10;;
5995;SDS011;3026;53.612;7.278;2022-07-05T07:31:43;3.57;;;1.33;;
5995;SDS011;3026;53.612;7.278;2022-07-05T07:34:10;2.50;;;0.90;;
5995;SDS011;3026;53.612;7.278;2022-07-05T07:36:37;2.40;;;1.10;;
5995;SDS011;3026;53.612;7.278;2022-07-05T07:39:05;1.60;;;1.00;;
5995;SDS011;3026;53.612;7.278;2022-07-05T07:41:32;5.53;;;1.10;;
5995;SDS011;3026;53.612;7.278;2022-07-05T07:43:59;3.80;;;1.23;;
5995;SDS011;3026;53.612;7.278;2022-07-05T07:46:26;6.07;;;1.30;;
5995;SDS011;3026;53.612;7.278;2022-07-05T07:48:53;4.30;;;1.10;;
5995;SDS011;3026;53.612;7.278;2022-07-05T07:51:21;5.13;;;1.10;;
5995;SDS011;3026;53.612;7.278;2022-07-05T07:53:47;4.67;;;1.13;;
5995;SDS011;3026;53.612;7.278;2022-07-05T07:56:15;5.37;;;1.00;;
5995;SDS011;3026;53.612;7.278;2022-07-05T07:58:42;5.37;;;1.17;;
5995;SDS011;3026;53.612;7.278;2022-07-05T08:01:09;4.03;;;1.30;;
5995;SDS011;3026;53.612;7.278;2022-07-05T08:03:37;3.40;;;1.20;;
5995;SDS011;3026;53.612;7.278;2022-07-05T08:06:04;5.37;;;1.10;;
5995;SDS011;3026;53.612;7.278;2022-07-05T08:08:33;2.23;;;1.10;;
5995;SDS011;3026;53.612;7.278;2022-07-05T08:10:59;2.63;;;1.33;;
5995;SDS011;3026;53.612;7.278;2022-07-05T08:13:28;1.87;;;1.10;;
5995;SDS011;3026;53.612;7.278;2022-07-05T08:15:54;3.17;;;1.20;;
5995;SDS011;3026;53.612;7.278;2022-07-05T08:18:21;4.93;;;0.90;;
5995;SDS011;3026;53.612;7.278;2022-07-05T08:21:05;7.57;;;1.20;;
5995;SDS011;3026;53.612;7.278;2022-07-05T08:23:49;1.67;;;0.80;;
5995;SDS011;3026;53.612;7.278;2022-07-05T08:26:16;3.10;;;0.90;;
5995;SDS011;3026;53.612;7.278;2022-07-05T08:28:44;2.97;;;0.80;;
5995;SDS011;3026;53.612;7.278;2022-07-05T08:31:11;1.83;;;0.90;;
5995;SDS011;3026;53.612;7.278;2022-07-05T08:33:38;2.13;;;0.80;;
5995;SDS011;3026;53.612;7.278;2022-07-05T08:36:05;1.93;;;1.00;;
5995;SDS011;3026;53.612;7.278;2022-07-05T08:38:32;2.73;;;0.87;;
5995;SDS011;3026;53.612;7.278;2022-07-05T08:40:59;1.50;;;0.80;;
5995;SDS011;3026;53.612;7.278;2022-07-05T08:43:28;2.07;;;0.80;;
5995;SDS011;3026;53.612;7.278;2022-07-05T08:45:57;1.33;;;0.90;;
5995;SDS011;3026;53.612;7.278;2022-07-05T08:48:25;1.67;;;1.43;;
5995;SDS011;3026;53.612;7.278;2022-07-05T08:50:54;4.23;;;1.20;;
5995;SDS011;3026;53.612;7.278;2022-07-05T08:53:22;4.23;;;0.90;;
5995;SDS011;3026;53.612;7.278;2022-07-05T08:55:49;3.77;;;1.20;;
5995;SDS011;3026;53.612;7.278;2022-07-05T08:58:15;3.17;;;0.90;;
5995;SDS011;3026;53.612;7.278;2022-07-05T09:00:42;3.93;;;1.37;;
5995;SDS011;3026;53.612;7.278;2022-07-05T09:03:11;3.13;;;1.03;;
5995;SDS011;3026;53.612;7.278;2022-07-05T09:05:39;5.23;;;1.20;;
5995;SDS011;3026;53.612;7.278;2022-07-05T09:08:09;3.57;;;0.90;;
5995;SDS011;3026;53.612;7.278;2022-07-05T09:10:40;3.60;;;1.00;;
5995;SDS011;3026;53.612;7.278;2022-07-05T09:13:09;3.93;;;0.97;;
5995;SDS011;3026;53.612;7.278;2022-07-05T09:15:38;3.03;;;1.03;;
5995;SDS011;3026;53.612;7.278;2022-07-05T09:18:05;1.60;;;0.73;;
5995;SDS011;3026;53.612;7.278;2022-07-05T09:20:33;5.07;;;1.27;;
5995;SDS011;3026;53.612;7.278;2022-07-05T09:23:00;3.10;;;0.90;;
5995;SDS011;3026;53.612;7.278;2022-07-05T09:25:27;1.30;;;0.80;;
5995;SDS011;3026;53.612;7.278;2022-07-05T09:27:56;2.10;;;0.90;;
5995;SDS011;3026;53.612;7.278;2022-07-05T09:30:34;3.70;;;0.90;;
5995;SDS011;3026;53.612;7.278;2022-07-05T09:33:04;4.63;;;1.03;;
5995;SDS011;3026;53.612;7.278;2022-07-05T09:35:34;5.93;;;1.40;;
5995;SDS011;3026;53.612;7.278;2022-07-05T09:38:02;1.83;;;1.00;;
5995;SDS011;3026;53.612;7.278;2022-07-05T09:40:30;3.63;;;1.17;;
5995;SDS011;3026;53.612;7.278;2022-07-05T09:43:11;4.17;;;1.30;;
5995;SDS011;3026;53.612;7.278;2022-07-05T09:45:38;3.83;;;1.03;;
5995;SDS011;3026;53.612;7.278;2022-07-05T09:48:06;4.03;;;1.17;;
5995;SDS011;3026;53.612;7.278;2022-07-05T09:50:35;2.40;;;1.30;;
5995;SDS011;3026;53.612;7.278;2022-07-05T09:53:02;3.40;;;0.90;;
5995;SDS011;3026;53.612;7.278;2022-07-05T09:55:30;3.50;;;1.27;;
5995;SDS011;3026;53.612;7.278;2022-07-05T09:57:58;4.60;;;1.07;;
5995;SDS011;3026;53.612;7.278;2022-07-05T10:00:25;4.50;;;1.10;;
5995;SDS011;3026;53.612;7.278;2022-07-05T10:02:54;2.60;;;1.00;;
5995;SDS011;3026;53.612;7.278;2022-07-05T10:05:26;5.17;;;1.00;;
5995;SDS011;3026;53.612;7.278;2022-07-05T10:07:56;1.47;;;1.03;;
5995;SDS011;3026;53.612;7.278;2022-07-05T10:10:24;5.53;;;1.50;;
5995;SDS011;3026;53.612;7.278;2022-07-05T10:12:53;2.43;;;1.10;;
5995;SDS011;3026;53.612;7.278;2022-07-05T10:15:22;2.80;;;1.10;;
5995;SDS011;3026;53.612;7.278;2022-07-05T10:17:52;2.10;;;1.40;;
5995;SDS011;3026;53.612;7.278;2022-07-05T10:20:24;4.47;;;1.27;;
5995;SDS011;3026;53.612;7.278;2022-07-05T10:22:56;2.17;;;0.90;;
5995;SDS011;3026;53.612;7.278;2022-07-05T10:25:25;3.00;;;1.30;;
5995;SDS011;3026;53.612;7.278;2022-07-05T10:27:54;2.10;;;0.80;;
5995;SDS011;3026;53.612;7.278;2022-07-05T10:30:22;2.70;;;0.90;;
5995;SDS011;3026;53.612;7.278;2022-07-05T10:32:49;8.73;;;1.27;;
5995;SDS011;3026;53.612;7.278;2022-07-05T10:35:17;3.90;;;1.00;;
5995;SDS011;3026;53.612;7.278;2022-07-05T10:37:44;4.07;;;1.20;;
5995;SDS011;3026;53.612;7.278;2022-07-05T10:40:14;11.77;;;1.70;;
5995;SDS011;3026;53.612;7.278;2022-07-05T10:42:43;3.37;;;1.10;;
5995;SDS011;3026;53.612;7.278;2022-07-05T10:45:23;2.77;;;1.07;;
5995;SDS011;3026;53.612;7.278;2022-07-05T10:50:42;4.03;;;1.63;;
5995;SDS011;3026;53.612;7.278;2022-07-05T10:53:10;3.80;;;2.07;;
5995;SDS011;3026;53.612;7.278;2022-07-05T10:55:48;1.90;;;0.90;;
5995;SDS011;3026;53.612;7.278;2022-07-05T10:58:19;4.23;;;1.10;;
5995;SDS011;3026;53.612;7.278;2022-07-05T11:04:18;8.87;;;1.43;;
5995;SDS011;3026;53.612;7.278;2022-07-05T11:06:47;2.80;;;1.07;;
5995;SDS011;3026;53.612;7.278;2022-07-05T11:09:18;7.40;;;1.20;;
5995;SDS011;3026;53.612;7.278;2022-07-05T11:12:00;8.73;;;1.60;;
5995;SDS011;3026;53.612;7.278;2022-07-05T11:14:30;2.40;;;0.90;;
5995;SDS011;3026;53.612;7.278;2022-07-05T11:17:12;4.73;;;0.90;;
5995;SDS011;3026;53.612;7.278;2022-07-05T11:20:05;5.40;;;1.23;;
5995;SDS011;3026;53.612;7.278;2022-07-05T11:22:36;4.47;;;1.60;;
5995;SDS011;3026;53.612;7.278;2022-07-05T11:25:04;7.67;;;1.57;;
5995;SDS011;3026;53.612;7.278;2022-07-05T11:27:34;6.10;;;1.40;;
5995;SDS011;3026;53.612;7.278;2022-07-05T11:30:01;7.57;;;1.80;;
5995;SDS011;3026;53.612;7.278;2022-07-05T11:32:36;6.23;;;1.37;;
5995;SDS011;3026;53.612;7.278;2022-07-05T11:35:14;4.93;;;1.50;;
5995;SDS011;3026;53.612;7.278;2022-07-05T11:37:59;5.57;;;1.60;;
5995;SDS011;3026;53.612;7.278;2022-07-05T11:40:30;4.27;;;1.40;;
5995;SDS011;3026;53.612;7.278;2022-07-05T11:43:00;8.07;;;1.97;;
5995;SDS011;3026;53.612;7.278;2022-07-05T11:45:29;4.50;;;1.53;;
5995;SDS011;3026;53.612;7.278;2022-07-05T11:47:57;2.77;;;1.37;;
5995;SDS011;3026;53.612;7.278;2022-07-05T11:50:29;2.03;;;0.97;;
5995;SDS011;3026;53.612;7.278;2022-07-05T11:52:58;2.57;;;0.87;;
5995;SDS011;3026;53.612;7.278;2022-07-05T11:55:27;4.03;;;1.23;;
5995;SDS011;3026;53.612;7.278;2022-07-05T11:57:56;6.17;;;1.00;;
5995;SDS011;3026;53.612;7.278;2022-07-05T12:00:32;3.67;;;0.90;;
5995;SDS011;3026;53.612;7.278;2022-07-05T12:03:01;2.20;;;0.90;;
5995;SDS011;3026;53.612;7.278;2022-07-05T12:05:36;3.80;;;1.07;;
5995;SDS011;3026;53.612;7.278;2022-07-05T12:08:03;4.83;;;1.00;;
5995;SDS011;3026;53.612;7.278;2022-07-05T12:10:31;2.53;;;0.83;;
5995;SDS011;3026;53.612;7.278;2022-07-05T12:13:15;2.57;;;0.90;;
5995;SDS011;3026;53.612;7.278;2022-07-05T12:15:43;5.40;;;1.53;;
5995;SDS011;3026;53.612;7.278;2022-07-05T12:18:11;3.87;;;1.10;;
5995;SDS011;3026;53.612;7.278;2022-07-05T12:20:40;2.10;;;1.87;;
5995;SDS011;3026;53.612;7.278;2022-07-05T12:23:08;2.80;;;1.10;;
5995;SDS011;3026;53.612;7.278;2022-07-05T12:25:36;4.73;;;1.40;;
5995;SDS011;3026;53.612;7.278;2022-07-05T12:28:03;3.07;;;1.43;;
5995;SDS011;3026;53.612;7.278;2022-07-05T12:30:32;4.97;;;1.40;;
5995;SDS011;3026;53.612;7.278;2022-07-05T12:33:00;3.10;;;0.90;;
5995;SDS011;3026;53.612;7.278;2022-07-05T12:35:29;2.80;;;1.10;;
5995;SDS011;3026;53.612;7.278;2022-07-05T12:38:04;5.27;;;1.23;;
5995;SDS011;3026;53.612;7.278;2022-07-05T12:40:32;4.33;;;1.50;;
5995;SDS011;3026;53.612;7.278;2022-07-05T12:43:03;2.90;;;1.33;;
5995;SDS011;3026;53.612;7.278;2022-07-05T12:45:32;3.77;;;1.20;;
5995;SDS011;3026;53.612;7.278;2022-07-05T12:48:01;3.13;;;1.30;;
5995;SDS011;3026;53.612;7.278;2022-07-05T12:50:30;7.30;;;1.20;;
5995;SDS011;3026;53.612;7.278;2022-07-05T12:53:10;2.67;;;1.30;;
5995;SDS011;3026;53.612;7.278;2022-07-05T12:55:58;3.90;;;0.93;;
5995;SDS011;3026;53.612;7.278;2022-07-05T12:58:46;7.47;;;1.77;;
5995;SDS011;3026;53.612;7.278;2022-07-05T13:01:20;4.13;;;1.10;;
5995;SDS011;3026;53.612;7.278;2022-07-05T13:04:02;1.20;;;0.90;;
5995;SDS011;3026;53.612;7.278;2022-07-05T13:06:40;2.17;;;1.20;;
5995;SDS011;3026;53.612;7.278;2022-07-05T13:09:29;3.03;;;1.33;;
5995;SDS011;3026;53.612;7.278;2022-07-05T13:12:07;2.13;;;1.00;;
5995;SDS011;3026;53.612;7.278;2022-07-05T13:14:37;4.73;;;1.40;;
5995;SDS011;3026;53.612;7.278;2022-07-05T13:17:05;1.67;;;1.30;;
5995;SDS011;3026;53.612;7.278;2022-07-05T13:19:34;4.83;;;1.20;;
5995;SDS011;3026;53.612;7.278;2022-07-05T13:22:02;3.83;;;1.20;;
5995;SDS011;3026;53.612;7.278;2022-07-05T13:24:29;3.03;;;1.30;;
5995;SDS011;3026;53.612;7.278;2022-07-05T13:26:56;2.23;;;1.00;;
5995;SDS011;3026;53.612;7.278;2022-07-05T13:29:23;3.67;;;1.13;;
5995;SDS011;3026;53.612;7.278;2022-07-05T13:31:50;3.30;;;1.00;;
5995;SDS011;3026;53.612;7.278;2022-07-05T13:34:17;3.30;;;1.17;;
5995;SDS011;3026;53.612;7.278;2022-07-05T13:36:45;2.30;;;1.03;;
5995;SDS011;3026;53.612;7.278;2022-07-05T13:39:12;2.20;;;1.10;;
5995;SDS011;3026;53.612;7.278;2022-07-05T13:41:39;2.57;;;1.10;;
5995;SDS011;3026;53.612;7.278;2022-07-05T13:44:05;5.83;;;1.33;;
5995;SDS011;3026;53.612;7.278;2022-07-05T13:46:32;3.93;;;1.27;;
5995;SDS011;3026;53.612;7.278;2022-07-05T13:48:59;2.93;;;1.00;;
5995;SDS011;3026;53.612;7.278;2022-07-05T13:51:26;3.63;;;1.20;;
5995;SDS011;3026;53.612;7.278;2022-07-05T13:53:55;3.03;;;1.30;;
5995;SDS011;3026;53.612;7.278;2022-07-05T13:56:22;4.90;;;1.30;;
5995;SDS011;3026;53.612;7.278;2022-07-05T13:58:49;2.17;;;1.03;;
5995;SDS011;3026;53.612;7.278;2022-07-05T14:01:16;3.27;;;1.17;;
5995;SDS011;3026;53.612;7.278;2022-07-05T14:03:45;2.33;;;1.00;;
5995;SDS011;3026;53.612;7.278;2022-07-05T14:06:11;2.17;;;1.20;;
5995;SDS011;3026;53.612;7.278;2022-07-05T14:08:38;3.97;;;1.60;;
5995;SDS011;3026;53.612;7.278;2022-07-05T14:11:08;5.83;;;1.33;;
5995;SDS011;3026;53.612;7.278;2022-07-05T14:13:37;3.23;;;1.30;;
5995;SDS011;3026;53.612;7.278;2022-07-05T14:16:05;3.87;;;1.30;;
5995;SDS011;3026;53.612;7.278;2022-07-05T14:18:32;3.90;;;1.27;;
5995;SDS011;3026;53.612;7.278;2022-07-05T14:20:59;3.47;;;1.30;;
5995;SDS011;3026;53.612;7.278;2022-07-05T14:23:26;2.77;;;1.20;;
5995;SDS011;3026;53.612;7.278;2022-07-05T14:25:53;7.20;;;1.90;;
5995;SDS011;3026;53.612;7.278;2022-07-05T14:28:21;2.73;;;1.10;;
5995;SDS011;3026;53.612;7.278;2022-07-05T14:30:48;4.57;;;1.20;;
5995;SDS011;3026;53.612;7.278;2022-07-05T14:33:15;1.57;;;1.03;;
5995;SDS011;3026;53.612;7.278;2022-07-05T14:35:42;5.43;;;1.17;;
5995;SDS011;3026;53.612;7.278;2022-07-05T14:38:10;3.03;;;0.97;;
5995;SDS011;3026;53.612;7.278;2022-07-05T14:40:37;2.67;;;1.20;;
5995;SDS011;3026;53.612;7.278;2022-07-05T14:43:05;2.03;;;1.00;;
5995;SDS011;3026;53.612;7.278;2022-07-05T14:45:35;1.93;;;1.10;;
5995;SDS011;3026;53.612;7.278;2022-07-05T14:48:03;1.83;;;0.97;;
5995;SDS011;3026;53.612;7.278;2022-07-05T14:50:30;3.37;;;0.93;;
5995;SDS011;3026;53.612;7.278;2022-07-05T14:52:58;3.67;;;1.47;;
5995;SDS011;3026;53.612;7.278;2022-07-05T14:55:31;1.53;;;1.00;;
5995;SDS011;3026;53.612;7.278;2022-07-05T14:57:59;2.37;;;1.03;;
5995;SDS011;3026;53.612;7.278;2022-07-05T15:00:25;8.67;;;1.20;;
5995;SDS011;3026;53.612;7.278;2022-07-05T15:02:54;1.80;;;1.00;;
5995;SDS011;3026;53.612;7.278;2022-07-05T15:05:22;3.27;;;0.97;;
5995;SDS011;3026;53.612;7.278;2022-07-05T15:07:49;4.90;;;1.33;;
5995;SDS011;3026;53.612;7.278;2022-07-05T15:10:16;1.57;;;1.00;;
5995;SDS011;3026;53.612;7.278;2022-07-05T15:12:44;3.27;;;1.20;;
5995;SDS011;3026;53.612;7.278;2022-07-05T15:15:12;4.43;;;1.50;;
5995;SDS011;3026;53.612;7.278;2022-07-05T15:17:40;3.10;;;1.00;;
5995;SDS011;3026;53.612;7.278;2022-07-05T15:20:10;3.17;;;1.00;;
5995;SDS011;3026;53.612;7.278;2022-07-05T15:22:38;4.43;;;1.00;;
5995;SDS011;3026;53.612;7.278;2022-07-05T15:25:06;4.30;;;1.20;;
5995;SDS011;3026;53.612;7.278;2022-07-05T15:27:35;3.50;;;1.17;;
5995;SDS011;3026;53.612;7.278;2022-07-05T15:30:03;2.57;;;1.00;;